This is the latest recevied weather packets stored in our database for station/object HB9UQS-13. If no packets are shown the sender has not sent any weather packets the latest 10 day(s).
| Time | Temp. | Humidity | Pressure | Rain* | Wind** | Luminosity | Snow |
|---|---|---|---|---|---|---|---|
| 1777661021 | 14.44° C | 55% | 936.8 hPa | 0 mm | - | 0 W/m² | - |
| 1777659221 | 17.22° C | 45% | 936.7 hPa | 0 mm | - | 0 W/m² | - |
| 1777657421 | 19.44° C | 40% | 936.5 hPa | 0 mm | - | 0 W/m² | - |
| 1777655621 | 20.56° C | 38% | 936.3 hPa | 0 mm | - | 0 W/m² | - |
| 1777653821 | 22.22° C | 31% | 936.5 hPa | 0 mm | - | 0 W/m² | - |
| 1777652021 | 21.67° C | 30% | 936.6 hPa | 0 mm | - | 0 W/m² | - |
| 1777650221 | 21.67° C | 33% | 936.7 hPa | 0 mm | - | 0 W/m² | - |
| 1777648421 | 21.67° C | 34% | 936.9 hPa | 0 mm | - | 0 W/m² | - |
| 1777646621 | 20.56° C | 38% | 936.9 hPa | 0 mm | - | 0 W/m² | - |
| 1777644821 | 20° C | 41% | 937.1 hPa | 0 mm | - | 0 W/m² | - |
| 1777643022 | 20° C | 39% | 937.3 hPa | 0 mm | - | 0 W/m² | - |
| 1777641221 | 19.44° C | 43% | 937.4 hPa | 0 mm | - | 0 W/m² | - |
| 1777639421 | 18.89° C | 43% | 937.7 hPa | 0 mm | - | 0 W/m² | - |
| 1777637621 | 20° C | 42% | 938 hPa | 0 mm | - | 0 W/m² | - |
| 1777635821 | 20° C | 40% | 938 hPa | 0 mm | - | 0 W/m² | - |
| 1777634021 | 18.33° C | 42% | 938.3 hPa | 0 mm | - | 0 W/m² | - |
| 1777632221 | 16.67° C | 43% | 938.3 hPa | 0 mm | - | 0 W/m² | - |
| 1777630421 | 17.22° C | 41% | 938.7 hPa | 0 mm | - | 0 W/m² | - |
| 1777628621 | 17.22° C | 44% | 938.6 hPa | 0 mm | - | 0 W/m² | - |
| 1777626821 | 14.44° C | 43% | 938.5 hPa | 0 mm | - | 0 W/m² | - |
| 1777625021 | 15° C | 40% | 938.6 hPa | 0 mm | - | 0 W/m² | - |
| 1777623221 | 14.44° C | 41% | 938.4 hPa | 0 mm | - | 0 W/m² | - |
| 1777621421 | 12.22° C | 44% | 938.5 hPa | 0 mm | - | 0 W/m² | - |
| 1777619621 | 10.56° C | 42% | 938.3 hPa | 0 mm | - | 0 W/m² | - |
| 1777617821 | 7.78° C | 47% | 938.2 hPa | 0 mm | - | 0 W/m² | - |
* Rain latest hour (hover to see other rain measurements)
** Current wind speed in m/s (hover to see current wind gust speed)